Bristol, NH (03222)

11:31 AM EST del 03 Marzo 2015 (GMT -0500)
Bristol Village | Change Station
CLOSE
Current Station
Stazione meteo personale
Location: Bristol, NH
Altitudine: 515 ft
Stazioni meteo nelle vicinanze
Avvisi attivi: Winter Weather Advisory

Alt. 515 ft 43.59 °N, 71.74 °W | Updated 8 seconds ago

Sereno
Sereno
26.1 °F
Sembra 26 °F
N
1.0
Vento Variabile Vento da OSO
Gusts 5.0 mph

Oggi
Massima -- | Minima -- °F
--% Possibilità di precip.
Ieri
Massima -- | Minima -- °F
Precip. -- in
6:20 AM 5:37 PM
Gobba a ponente, 96% visible
Pressione 30.32 in
Visibilità 10.0 miglia
Nuvole Sereno
Raffreddamento del vento 26 °F
Punto di rugiada -4 °F
Umidità 26%
Piovosità 0.00 in
Spessore del manto nevoso Non disponibile.
Raggi UV 2.9 fuori da 12
Polline .30 fuori da 12
Qualità dell'aria Non disponibile.
Flu Activity Non disponibile.
METAR K1P1 031615Z AUTO 31003KT 10SM CLR M05/M18 A3032 RMK AO2 T10481181

More Conditions Fewer Conditions

Pressione 30.32 in
Visibilità 10.0 miglia
Nuvole Sereno
Raffreddamento del vento 26 °F
Punto di rugiada -4 °F
Umidità 26%
Piovosità 0.00 in
Spessore del manto nevoso Non disponibile.
Raggi UV 2.9 fuori da 12
Polline .30 fuori da 12
Qualità dell'aria Non disponibile.
Flu Activity Non disponibile.
METAR K1P1 031615Z AUTO 31003KT 10SM CLR M05/M18 A3032 RMK AO2 T10481181

More Conditions Fewer Conditions

10-Day Weather Forecast

Almanac

Astronomia

Mar. 03, 2015 Alba Tramonto
Ora attuale
Crepuscolo civile
Crepuscolo nautico
Crepuscolo astronomico
Luna
Estensione della luce visibile
Lunghezza del giorno
Tomorrow will be .
, % of the Moon is Illuminated

Gli estremi di oggi

State Highs State Lows

Community

WunderPhotos

Upload Photos

1,802,164 foto caricate!

WunderBlogs® & News

Nearby

Qualità dell'aria

  Qualità dell'aria Indice AQ Inquinante
Not available.

Profondità neve

Stazione Profondità Altitudine

Attività sismica

Città  Distanza Mag. Data & Ora
Minimo Magnitudo Mostrato è 2.5.

Temperature delle acque costiere

Località Temperatura

Stazioni meteo nelle vicinanze

Winter Weather Advisory
Statement as of 11:01 AM EST del 03 Marzo 2015

... Winter Weather Advisory remains in effect from 4 PM this
afternoon to 7 am EST Wednesday...

* hazard types... snow

* accumulations... snow accumulation of 3 to 5 inches.

* Timing... snow will begin late today and continue overnight...
ending by sunrise Wednesday.

* Impacts... roads will become snow covered and slippery.

* Winds... south 10 to 20 mph with gusts up to 30 mph.

* Temperatures... in the lower 20s.

Precautionary/preparedness actions...

A Winter Weather Advisory for snow means that periods of snow
will cause primarily travel difficulties. Be prepared for snow
covered roads and limited visibilities... and use caution while
driving.